createdAt,value
2019-04-19T00:01:50.785Z,53.60
2019-04-19T00:04:14.998Z,54.10
2019-04-19T00:06:45.989Z,53.20
2019-04-19T00:09:27.171Z,52.90
2019-04-19T00:11:52.596Z,52.90
2019-04-19T00:14:12.744Z,53.40
2019-04-19T00:16:40.620Z,53.90
2019-04-19T00:19:38.490Z,53.90
2019-04-19T00:22:05.236Z,53.80
2019-04-19T00:24:07.881Z,54.00
2019-04-19T00:26:37.965Z,54.60
2019-04-19T00:29:07.648Z,54.50
2019-04-19T00:31:42.713Z,54.00
2019-04-19T00:34:04.275Z,54.30
2019-04-19T00:36:32.144Z,54.00
2019-04-19T00:39:23.788Z,54.00
2019-04-19T00:42:08.587Z,54.00
2019-04-19T00:44:59.012Z,54.00
2019-04-19T00:47:24.686Z,54.20
2019-04-19T00:49:53.992Z,54.00
2019-04-19T00:52:23.454Z,54.00
2019-04-19T00:54:49.174Z,54.20
2019-04-19T00:57:15.584Z,54.50
2019-04-19T00:59:40.485Z,54.20
2019-04-19T01:02:08.926Z,54.40
2019-04-19T01:04:34.746Z,54.40
2019-04-19T01:07:04.119Z,54.50
2019-04-19T01:09:44.294Z,54.30
2019-04-19T01:12:15.025Z,54.70
2019-04-19T01:14:38.342Z,54.30
2019-04-19T01:17:15.162Z,54.20
2019-04-19T01:19:28.306Z,54.40
2019-04-19T01:21:55.711Z,54.50
2019-04-19T01:24:29.195Z,54.40
2019-04-19T01:26:54.725Z,54.30
2019-04-19T01:29:23.006Z,54.50
2019-04-19T01:32:00.448Z,54.70
2019-04-19T01:34:24.912Z,54.80
2019-04-19T01:36:51.228Z,54.30
2019-04-19T01:39:32.453Z,54.50
2019-04-19T01:41:58.235Z,54.40
2019-04-19T01:44:56.867Z,54.50
2019-04-19T01:47:36.232Z,55.00
2019-04-19T01:50:14.230Z,54.30
2019-04-19T01:52:50.847Z,54.30
2019-04-19T01:55:11.206Z,54.30
2019-04-19T01:57:28.389Z,54.60
2019-04-19T01:59:58.685Z,54.30
2019-04-19T02:02:27.454Z,54.90
2019-04-19T02:05:01.856Z,55.00
2019-04-19T02:07:27.454Z,54.80
2019-04-19T02:10:06.351Z,54.90
2019-04-19T02:12:34.168Z,54.60
2019-04-19T02:14:59.513Z,54.60
2019-04-19T02:17:21.257Z,54.80
2019-04-19T02:19:55.573Z,55.10
2019-04-19T02:22:24.719Z,55.40
2019-04-19T02:24:52.000Z,55.50
2019-04-19T02:27:18.264Z,55.70
2019-04-19T02:29:54.111Z,55.70
2019-04-19T02:32:35.892Z,55.60
2019-04-19T02:45:12.107Z,55.70
2019-04-19T02:55:09.505Z,56.00
2019-04-19T03:07:55.565Z,56.50
2019-04-19T03:10:26.103Z,57.00
2019-04-19T03:13:10.080Z,57.00
2019-04-19T03:15:44.020Z,57.20
2019-04-19T03:18:15.899Z,57.10
2019-04-19T03:20:34.816Z,56.90
2019-04-19T03:23:03.190Z,56.90
2019-04-19T03:25:33.936Z,56.70
2019-04-19T03:28:00.972Z,56.90
2019-04-19T03:30:35.514Z,56.80
2019-04-19T03:35:34.166Z,57.30
2019-04-19T03:38:15.719Z,57.70
2019-04-19T03:40:37.410Z,57.70
2019-04-19T03:43:26.545Z,58.00
2019-04-19T03:45:51.505Z,58.00
2019-04-19T03:48:37.897Z,57.90
2019-04-19T03:50:44.396Z,57.80
2019-04-19T03:53:20.228Z,57.80
2019-04-19T03:55:57.853Z,58.60
2019-04-19T03:58:03.181Z,57.80
2019-04-19T04:00:26.098Z,57.50
2019-04-19T04:02:54.485Z,57.50
2019-04-19T04:05:23.078Z,57.30
2019-04-19T04:08:06.126Z,57.60
2019-04-19T04:10:44.233Z,57.60
2019-04-19T04:13:43.086Z,57.80
2019-04-19T04:16:40.729Z,58.10
2019-04-19T04:19:03.780Z,58.00
2019-04-19T04:21:36.874Z,58.00
2019-04-19T04:24:15.321Z,58.00
2019-04-19T04:26:40.525Z,57.80
2019-04-19T04:29:09.289Z,57.70
2019-04-19T04:31:44.469Z,57.50
2019-04-19T04:34:10.349Z,57.40
2019-04-19T04:36:45.193Z,57.60
2019-04-19T04:38:56.621Z,57.90
2019-04-19T04:41:27.882Z,57.90
2019-04-19T04:44:13.580Z,57.70
2019-04-19T04:47:02.276Z,57.90
2019-04-19T04:50:09.717Z,58.00
2019-04-19T04:52:37.721Z,58.10
2019-04-19T04:55:11.831Z,58.10
2019-04-19T04:57:47.479Z,57.90
2019-04-19T05:00:09.765Z,58.10
2019-04-19T05:02:56.210Z,57.90
2019-04-19T05:05:27.722Z,58.00
2019-04-19T05:07:59.766Z,58.00
2019-04-19T05:10:24.811Z,57.80
2019-04-19T05:13:10.636Z,57.90
2019-04-19T05:15:26.293Z,57.30
2019-04-19T05:18:00.089Z,57.00
2019-04-19T05:20:23.989Z,57.00
2019-04-19T05:22:56.189Z,56.50
2019-04-19T05:25:31.287Z,56.60
2019-04-19T05:27:50.249Z,56.30
2019-04-19T05:30:02.731Z,56.30
2019-04-19T05:32:35.756Z,56.10
2019-04-19T05:35:12.045Z,55.70
2019-04-19T05:37:54.361Z,55.50
2019-04-19T05:40:24.378Z,55.40
2019-04-19T05:42:56.534Z,55.60
2019-04-19T05:45:37.953Z,55.40
2019-04-19T05:47:55.793Z,55.00
2019-04-19T05:50:45.835Z,54.90
2019-04-19T05:53:00.089Z,54.60
2019-04-19T05:55:13.185Z,55.00
2019-04-19T05:57:56.644Z,54.90
2019-04-19T06:00:28.459Z,54.80
2019-04-19T06:02:58.562Z,54.50
2019-04-19T06:05:33.900Z,54.50
2019-04-19T06:07:54.754Z,54.10
2019-04-19T06:10:14.095Z,54.20
2019-04-19T06:12:42.451Z,54.50
2019-04-19T06:15:35.088Z,54.40
2019-04-19T06:18:00.413Z,54.00
2019-04-19T06:20:30.251Z,53.90
2019-04-19T06:23:03.841Z,54.30
2019-04-19T06:25:41.838Z,54.30
2019-04-19T06:30:36.616Z,53.70
2019-04-19T06:33:02.976Z,53.10
2019-04-19T06:35:27.008Z,52.30
2019-04-19T06:37:44.246Z,52.40
2019-04-19T06:40:21.135Z,52.80
2019-04-19T06:42:52.068Z,52.30
2019-04-19T06:45:27.840Z,52.50
2019-04-19T06:47:47.977Z,51.90
2019-04-19T06:50:10.900Z,51.90
2019-04-19T06:52:39.977Z,52.00
2019-04-19T06:55:17.512Z,51.30
2019-04-19T06:57:51.335Z,51.50
2019-04-19T07:00:20.080Z,51.00
2019-04-19T07:02:37.076Z,50.70
2019-04-19T07:05:20.432Z,50.50
2019-04-19T07:08:04.364Z,50.70
2019-04-19T07:10:34.703Z,51.00
2019-04-19T07:12:52.436Z,51.10
2019-04-19T07:15:33.713Z,50.50
2019-04-19T07:17:47.698Z,51.50
2019-04-19T07:20:14.850Z,50.50
2019-04-19T07:22:48.395Z,49.60
2019-04-19T07:25:27.618Z,50.20
2019-04-19T07:27:40.286Z,50.60
2019-04-19T07:30:01.747Z,50.00
2019-04-19T07:32:36.170Z,49.30
2019-04-19T07:35:10.228Z,49.00
2019-04-19T07:37:41.875Z,48.70
2019-04-19T07:40:17.501Z,48.50
2019-04-19T07:42:40.687Z,48.80
2019-04-19T07:45:03.517Z,48.70
2019-04-19T07:47:52.366Z,48.60
2019-04-19T07:55:13.633Z,46.80
2019-04-19T07:58:16.515Z,46.50
2019-04-19T08:00:52.326Z,46.80
2019-04-19T08:03:05.783Z,46.20
2019-04-19T08:05:36.916Z,46.70
2019-04-19T08:08:17.692Z,46.00
2019-04-19T08:15:56.606Z,45.10
2019-04-19T08:18:06.410Z,43.60
2019-04-19T08:27:45.218Z,43.20
2019-04-19T08:30:12.257Z,41.90
2019-04-19T08:32:36.419Z,42.20
2019-04-19T08:35:09.317Z,41.50
2019-04-19T08:37:37.824Z,40.90
2019-04-19T08:40:26.334Z,40.70
2019-04-19T08:43:06.228Z,41.00
2019-04-19T08:45:10.986Z,40.50
2019-04-19T08:48:03.467Z,39.10
2019-04-19T08:50:24.503Z,40.20
2019-04-19T08:52:59.211Z,40.10
2019-04-19T08:55:43.138Z,39.20
2019-04-19T08:57:59.163Z,39.20
2019-04-19T09:00:49.965Z,38.80
2019-04-19T09:03:06.652Z,39.10
2019-04-19T09:05:34.475Z,38.30
2019-04-19T09:08:05.724Z,37.70
2019-04-19T09:10:34.368Z,36.80
2019-04-19T09:13:18.424Z,37.90
2019-04-19T09:15:27.708Z,37.70
2019-04-19T09:20:34.502Z,37.40
2019-04-19T09:23:00.352Z,36.80
2019-04-19T09:25:52.611Z,36.70
2019-04-19T09:30:54.824Z,36.40
2019-04-19T09:33:15.728Z,35.20
2019-04-19T09:35:52.523Z,35.40
2019-04-19T09:38:18.131Z,33.30
2019-04-19T09:40:46.551Z,34.10
2019-04-19T09:43:20.091Z,33.40
2019-04-19T09:45:36.347Z,32.40
2019-04-19T09:48:03.729Z,33.80
2019-04-19T09:50:47.065Z,34.80
2019-04-19T09:53:30.737Z,33.60
2019-04-19T09:55:52.331Z,33.30
2019-04-19T09:58:16.958Z,32.90
2019-04-19T10:00:30.660Z,32.00
2019-04-19T10:03:03.835Z,32.50
2019-04-19T10:05:29.184Z,33.10
2019-04-19T10:07:56.796Z,32.00
2019-04-19T10:10:24.913Z,32.40
2019-04-19T10:12:53.782Z,31.90
2019-04-19T10:15:32.087Z,32.40
2019-04-19T10:18:00.609Z,31.40
2019-04-19T10:20:48.839Z,30.90
2019-04-19T10:23:17.548Z,31.30
2019-04-19T10:25:51.615Z,28.90
2019-04-19T10:28:15.996Z,30.40
2019-04-19T10:31:09.318Z,30.40
2019-04-19T10:33:48.058Z,29.90
2019-04-19T10:36:08.681Z,30.90
2019-04-19T10:38:36.202Z,30.10
2019-04-19T10:41:03.972Z,29.60
2019-04-19T10:43:32.791Z,30.60
2019-04-19T10:46:00.611Z,30.10
2019-04-19T10:48:28.184Z,29.10
2019-04-19T10:51:15.231Z,29.60
2019-04-19T10:53:42.726Z,30.10
2019-04-19T10:56:22.559Z,28.30
2019-04-19T10:58:49.957Z,28.90
2019-04-19T11:01:19.175Z,28.50
2019-04-19T11:03:47.028Z,29.30
2019-04-19T11:06:16.749Z,28.00
2019-04-19T11:08:44.574Z,27.50
2019-04-19T11:11:13.761Z,27.90
2019-04-19T11:13:42.063Z,28.10
2019-04-19T11:16:10.526Z,27.80
2019-04-19T11:18:37.859Z,26.00
2019-04-19T11:21:05.382Z,25.90
2019-04-19T11:23:33.605Z,26.40
2019-04-19T11:26:01.293Z,27.40
2019-04-19T11:28:29.158Z,25.20
2019-04-19T11:31:17.077Z,24.50
2019-04-19T11:33:43.822Z,25.30
2019-04-19T11:36:11.523Z,23.90
2019-04-19T11:38:38.975Z,25.20
2019-04-19T11:41:07.068Z,25.30
2019-04-19T11:43:35.568Z,24.00
2019-04-19T11:46:04.125Z,25.40
2019-04-19T11:48:33.436Z,25.30
2019-04-19T11:51:00.941Z,25.20
2019-04-19T11:53:34.635Z,23.30
2019-04-19T11:56:29.254Z,24.70
2019-04-19T11:58:58.315Z,23.60
2019-04-19T12:01:30.035Z,23.70
2019-04-19T12:03:58.462Z,24.40
2019-04-19T12:06:26.576Z,24.30
2019-04-19T12:08:54.282Z,23.50
2019-04-19T12:11:24.316Z,24.00
2019-04-19T12:13:52.275Z,22.70
2019-04-19T12:16:19.762Z,23.80
2019-04-19T12:18:48.718Z,24.10
2019-04-19T12:21:16.210Z,22.90
2019-04-19T12:23:44.550Z,23.00
2019-04-19T12:26:12.083Z,23.20
2019-04-19T12:28:39.658Z,22.60
2019-04-19T12:31:07.473Z,22.30
2019-04-19T12:33:35.359Z,22.30
2019-04-19T12:36:03.338Z,22.90
2019-04-19T12:38:32.322Z,21.60
2019-04-19T12:41:01.705Z,22.30
2019-04-19T12:43:29.911Z,22.20
2019-04-19T12:45:58.912Z,20.70
2019-04-19T12:48:27.628Z,23.00
2019-04-19T12:50:55.738Z,21.10
2019-04-19T12:53:23.215Z,21.60
2019-04-19T12:55:51.574Z,21.50
2019-04-19T12:58:19.704Z,21.50
2019-04-19T13:01:26.091Z,22.60
2019-04-19T13:04:20.350Z,21.50
2019-04-19T13:06:58.752Z,21.60
2019-04-19T13:09:26.826Z,19.90
2019-04-19T13:11:56.789Z,21.90
2019-04-19T13:14:23.825Z,21.40
2019-04-19T13:16:52.532Z,18.60
2019-04-19T13:19:20.796Z,20.90
2019-04-19T13:21:48.593Z,20.50
2019-04-19T13:24:16.274Z,21.10
2019-04-19T13:26:43.738Z,21.30
2019-04-19T13:29:11.428Z,22.20
2019-04-19T13:31:39.277Z,22.60
2019-04-19T13:34:07.210Z,22.60
2019-04-19T13:37:05.100Z,22.50
2019-04-19T13:39:54.258Z,21.10
2019-04-19T13:42:24.499Z,20.90
2019-04-19T13:45:01.857Z,20.80
2019-04-19T13:47:23.018Z,21.70
2019-04-19T13:49:53.279Z,22.50
2019-04-19T13:52:20.815Z,17.90
2019-04-19T13:54:48.530Z,20.00
2019-04-19T13:57:15.998Z,19.10
2019-04-19T13:59:50.988Z,20.00
2019-04-19T14:02:12.893Z,19.70
2019-04-19T14:04:41.654Z,18.60
2019-04-19T14:07:09.500Z,19.80
2019-04-19T14:09:37.137Z,20.10
2019-04-19T14:12:04.994Z,20.10
2019-04-19T14:14:32.895Z,20.00
2019-04-19T14:17:00.438Z,20.20
2019-04-19T14:19:29.154Z,19.50
2019-04-19T14:21:57.281Z,18.20
2019-04-19T14:24:25.110Z,17.10
2019-04-19T14:26:55.944Z,18.70
2019-04-19T14:29:21.869Z,17.50
2019-04-19T14:31:50.397Z,16.20
2019-04-19T14:34:19.343Z,15.80
2019-04-19T14:36:47.064Z,16.40
2019-04-19T14:39:14.478Z,15.20
2019-04-19T14:41:43.420Z,16.50
2019-04-19T14:44:11.309Z,15.20
2019-04-19T14:46:38.830Z,14.70
2019-04-19T14:49:07.051Z,16.50
2019-04-19T14:51:37.023Z,14.90
2019-04-19T14:54:04.712Z,15.20
2019-04-19T14:56:32.202Z,15.90
2019-04-19T14:58:59.600Z,15.90
2019-04-19T15:01:46.910Z,14.90
2019-04-19T15:04:30.893Z,15.00
2019-04-19T15:06:59.904Z,15.80
2019-04-19T15:09:27.734Z,17.00
2019-04-19T15:11:55.105Z,16.50
2019-04-19T15:14:24.021Z,16.20
2019-04-19T15:16:52.123Z,16.20
2019-04-19T15:19:20.847Z,16.20
2019-04-19T15:21:48.562Z,15.40
2019-04-19T15:24:16.849Z,16.10
2019-04-19T15:26:44.828Z,15.00
2019-04-19T15:29:13.248Z,14.90
2019-04-19T15:31:41.942Z,15.50
2019-04-19T15:34:09.705Z,15.30
2019-04-19T15:36:37.667Z,14.90
2019-04-19T15:39:08.075Z,16.00
2019-04-19T15:41:35.566Z,15.10
2019-04-19T15:44:04.178Z,15.60
2019-04-19T15:46:31.709Z,14.90
2019-04-19T15:49:00.054Z,15.20
2019-04-19T15:51:32.481Z,15.60
2019-04-19T15:53:58.163Z,15.50
2019-04-19T15:56:26.558Z,15.80
2019-04-19T15:58:54.574Z,15.40
2019-04-19T16:01:29.622Z,15.70
2019-04-19T16:03:58.800Z,15.70
2019-04-19T16:06:38.334Z,14.80
2019-04-19T16:09:35.607Z,15.50
2019-04-19T16:12:25.959Z,15.90
2019-04-19T16:14:53.741Z,15.50
2019-04-19T16:17:21.145Z,16.40
2019-04-19T16:19:49.103Z,16.40
2019-04-19T16:22:16.690Z,17.30
2019-04-19T16:24:45.174Z,17.70
2019-04-19T16:27:13.367Z,18.00
2019-04-19T16:29:48.833Z,18.40
2019-04-19T16:32:10.450Z,19.10
2019-04-19T16:34:38.796Z,20.20
2019-04-19T16:37:06.351Z,20.70
2019-04-19T16:39:33.753Z,21.10
2019-04-19T16:42:01.165Z,21.30
2019-04-19T16:44:29.748Z,21.80
2019-04-19T16:46:57.248Z,22.30
2019-04-19T16:49:24.781Z,23.00
2019-04-19T16:51:56.165Z,22.90
2019-04-19T16:54:22.546Z,23.50
2019-04-19T16:56:51.367Z,23.60
2019-04-19T16:59:19.744Z,23.80
2019-04-19T17:01:48.473Z,24.60
2019-04-19T17:04:16.025Z,25.10
2019-04-19T17:06:44.777Z,26.60
2019-04-19T17:09:13.127Z,26.20
2019-04-19T17:11:41.783Z,26.40
2019-04-19T17:14:09.324Z,26.30
2019-04-19T17:16:57.701Z,27.10
2019-04-19T17:19:44.914Z,28.20
2019-04-19T17:22:17.393Z,30.00
2019-04-19T17:24:41.511Z,29.50
2019-04-19T17:27:09.139Z,30.10
2019-04-19T17:29:37.423Z,30.50
2019-04-19T17:32:05.869Z,32.10
2019-04-19T17:34:34.089Z,32.00
2019-04-19T17:37:02.291Z,32.10
2019-04-19T17:39:30.924Z,33.00
2019-04-19T17:41:58.847Z,33.70
2019-04-19T17:44:26.392Z,34.00
2019-04-19T17:46:54.446Z,36.40
2019-04-19T17:49:22.507Z,34.30
2019-04-19T17:51:59.860Z,34.30
2019-04-19T17:54:41.541Z,33.80
2019-04-19T17:56:49.094Z,35.40
2019-04-19T17:59:18.399Z,36.80
2019-04-19T18:01:46.300Z,37.10
2019-04-19T18:04:16.500Z,40.50
2019-04-19T18:06:49.966Z,38.50
2019-04-19T18:09:16.196Z,37.80
2019-04-19T18:11:43.061Z,38.20
2019-04-19T18:14:11.581Z,39.40
2019-04-19T18:16:39.038Z,39.60
2019-04-19T18:19:07.219Z,39.20
2019-04-19T18:21:38.575Z,39.40
2019-04-19T18:24:11.562Z,40.20
2019-04-19T18:26:34.996Z,39.60
2019-04-19T18:29:03.058Z,40.20
2019-04-19T18:31:37.576Z,40.30
2019-04-19T18:34:04.141Z,40.80
2019-04-19T18:36:30.802Z,39.90
2019-04-19T18:38:58.942Z,40.80
2019-04-19T18:41:27.582Z,43.40
2019-04-19T18:44:07.464Z,42.40
2019-04-19T18:46:25.324Z,42.30
2019-04-19T18:48:53.624Z,43.40
2019-04-19T18:51:32.761Z,43.30
2019-04-19T18:53:59.802Z,43.10
2019-04-19T18:56:24.450Z,43.30
2019-04-19T18:58:50.281Z,43.10
2019-04-19T19:01:27.253Z,43.90
2019-04-19T19:03:48.402Z,43.70
2019-04-19T19:06:20.133Z,44.90
2019-04-19T19:08:52.116Z,45.90
2019-04-19T19:11:20.978Z,46.50
2019-04-19T19:13:46.683Z,44.90
2019-04-19T19:16:20.789Z,46.60
2019-04-19T19:18:50.229Z,46.60
2019-04-19T19:21:16.021Z,49.60
2019-04-19T19:24:05.010Z,47.30
2019-04-19T19:26:21.352Z,47.70
2019-04-19T19:28:40.465Z,47.40
2019-04-19T19:31:09.078Z,46.90
2019-04-19T19:33:44.412Z,47.30
2019-04-19T19:36:09.054Z,47.30
2019-04-19T19:38:40.165Z,48.20
2019-04-19T19:41:24.079Z,47.40
2019-04-19T19:43:48.396Z,46.90
2019-04-19T19:46:27.378Z,47.10
2019-04-19T19:49:19.110Z,50.10
2019-04-19T19:51:23.927Z,49.60
2019-04-19T19:54:03.217Z,49.10
2019-04-19T19:56:26.119Z,50.40
2019-04-19T19:58:41.452Z,50.00
2019-04-19T20:01:17.052Z,54.00
2019-04-19T20:03:38.759Z,51.50
2019-04-19T20:06:08.045Z,51.00
2019-04-19T20:08:37.967Z,50.80
2019-04-19T20:11:03.982Z,51.40
2019-04-19T20:13:38.458Z,51.80
2019-04-19T20:16:00.868Z,50.60
2019-04-19T20:18:37.284Z,51.90
2019-04-19T20:21:00.677Z,53.60
2019-04-19T20:23:35.271Z,51.90
2019-04-19T20:26:08.548Z,51.90
2019-04-19T20:28:32.736Z,52.20
2019-04-19T20:31:00.730Z,56.50
2019-04-19T20:33:34.433Z,53.10
2019-04-19T20:35:59.036Z,54.10
2019-04-19T20:38:30.041Z,53.50
2019-04-19T20:40:58.794Z,54.20
2019-04-19T20:43:39.608Z,55.70
2019-04-19T20:45:56.283Z,53.90
2019-04-19T20:48:26.318Z,56.80
2019-04-19T20:51:04.442Z,54.80
2019-04-19T20:53:35.900Z,55.20
2019-04-19T20:56:32.042Z,55.60
2019-04-19T20:58:35.515Z,57.20
2019-04-19T21:00:58.865Z,55.20
2019-04-19T21:03:30.893Z,55.70
2019-04-19T21:05:56.335Z,55.30
2019-04-19T21:08:25.332Z,55.60
2019-04-19T21:10:58.903Z,56.50
2019-04-19T21:13:23.328Z,55.80
2019-04-19T21:15:51.944Z,56.30
2019-04-19T21:18:23.495Z,55.40
2019-04-19T21:20:49.976Z,55.30
2019-04-19T21:23:22.590Z,54.80
2019-04-19T21:25:53.562Z,54.00
2019-04-19T21:28:16.814Z,55.00
2019-04-19T21:30:50.391Z,55.20
2019-04-19T21:33:15.937Z,55.70
2019-04-19T21:35:51.377Z,54.10
2019-04-19T21:38:17.668Z,54.80
2019-04-19T21:40:43.624Z,55.90
2019-04-19T21:43:11.250Z,55.30
2019-04-19T21:45:43.209Z,55.80
2019-04-19T21:48:08.843Z,57.90
2019-04-19T21:50:41.511Z,57.00
2019-04-19T21:53:09.143Z,57.10
2019-04-19T21:55:40.343Z,57.10
2019-04-19T21:58:09.054Z,65.70
2019-04-19T22:01:01.255Z,58.70
2019-04-19T22:03:28.262Z,60.80
2019-04-19T22:05:56.958Z,59.00
2019-04-19T22:08:31.179Z,60.00
2019-04-19T22:10:54.274Z,60.50
2019-04-19T22:13:25.297Z,63.50
2019-04-19T22:15:54.322Z,62.00
2019-04-19T22:18:21.386Z,60.60
2019-04-19T22:20:52.572Z,59.80
2019-04-19T22:23:20.473Z,59.40
2019-04-19T22:25:53.704Z,59.00
2019-04-19T22:28:17.438Z,58.70
2019-04-19T22:30:48.743Z,60.40
2019-04-19T22:33:14.388Z,60.90
2019-04-19T22:35:45.204Z,60.50
2019-04-19T22:38:17.163Z,59.40
2019-04-19T22:40:40.768Z,59.10
2019-04-19T22:43:11.558Z,58.60
2019-04-19T22:45:38.892Z,58.90
2019-04-19T22:48:14.035Z,58.60
2019-04-19T22:50:38.619Z,58.60
2019-04-19T22:53:05.649Z,58.60
2019-04-19T22:55:45.125Z,58.20
2019-04-19T22:58:03.042Z,58.10
2019-04-19T23:00:38.812Z,58.50
2019-04-19T23:03:14.271Z,58.60
2019-04-19T23:05:44.899Z,58.90
2019-04-19T23:08:10.360Z,57.90
2019-04-19T23:10:45.358Z,58.50
2019-04-19T23:13:11.417Z,59.20
2019-04-19T23:15:40.131Z,58.40
2019-04-19T23:18:13.260Z,59.00
2019-04-19T23:20:39.096Z,59.00
2019-04-19T23:23:13.742Z,58.40
2019-04-19T23:25:38.845Z,58.50
2019-04-19T23:28:16.813Z,58.70
2019-04-19T23:30:34.820Z,58.10
2019-04-19T23:33:07.084Z,58.60
2019-04-19T23:35:36.048Z,58.40
2019-04-19T23:38:01.069Z,58.10
2019-04-19T23:40:32.759Z,58.80
2019-04-19T23:42:58.521Z,58.90
2019-04-19T23:45:32.933Z,58.70
2019-04-19T23:47:56.145Z,58.60
2019-04-19T23:50:27.903Z,58.70
2019-04-19T23:52:57.507Z,58.50
2019-04-19T23:55:22.269Z,58.80
2019-04-19T23:57:53.780Z,58.50
